Time;durP1;ratioP1;P1;durP2;ratioP2;P2;SDS_P1;SDS_P2;PMS_P1;PMS_P2;Temp;Humidity;BMP_temperature;BMP_pressure;BME280_temperature;BME280_humidity;BME280_pressure;Samples;Min_cycle;Max_cycle;Signal;HPM_P1;HPM_P2
2023/12/25 00:01:07;;;;;;;3.00;1.07;;;22.00;59.80;;;;;;4930256;29;20478;-80
2023/12/25 00:03:35;;;;;;;1.50;1.10;;;22.00;59.90;;;;;;4932459;29;20456;-82
2023/12/25 00:06:15;;;;;;;1.47;1.33;;;22.00;60.10;;;;;;4920881;29;20460;-82
2023/12/25 00:08:43;;;;;;;1.13;1.03;;;22.00;60.00;;;;;;4929647;29;20515;-83
2023/12/25 00:11:13;;;;;;;2.00;1.30;;;22.00;60.30;;;;;;4932880;29;20459;-81
2023/12/25 00:13:41;;;;;;;1.30;1.20;;;22.00;60.30;;;;;;4924173;29;20512;-82
2023/12/25 00:16:10;;;;;;;1.00;1.00;;;22.00;60.10;;;;;;4911950;29;20471;-81
2023/12/25 00:18:37;;;;;;;2.93;1.27;;;22.00;60.10;;;;;;4929071;29;20456;-81
2023/12/25 00:21:05;;;;;;;1.23;1.07;;;22.00;60.30;;;;;;4934910;29;20570;-82
2023/12/25 00:23:35;;;;;;;1.73;1.23;;;22.00;60.30;;;;;;4931693;29;20488;-84
2023/12/25 00:26:03;;;;;;;1.13;0.97;;;22.00;60.20;;;;;;4933719;29;20470;-80
2023/12/25 00:28:33;;;;;;;1.47;1.17;;;22.00;60.20;;;;;;4930159;29;20471;-84
2023/12/25 00:31:01;;;;;;;1.20;1.10;;;22.00;60.30;;;;;;4930456;29;20506;-80
2023/12/25 00:33:30;;;;;;;3.23;1.57;;;22.00;60.50;;;;;;4930202;29;20452;-83
2023/12/25 00:36:00;;;;;;;1.70;1.13;;;22.00;60.50;;;;;;4927276;29;21004;-81
2023/12/25 00:38:28;;;;;;;1.20;1.10;;;22.00;60.50;;;;;;4932273;29;20542;-80
2023/12/25 00:40:56;;;;;;;1.73;1.10;;;22.00;60.40;;;;;;4914580;29;20575;-82
2023/12/25 00:43:25;;;;;;;0.80;0.80;;;22.00;60.50;;;;;;4929056;29;20982;-80
2023/12/25 00:45:58;;;;;;;1.60;0.87;;;22.00;60.70;;;;;;4918900;29;20462;-80
2023/12/25 00:48:26;;;;;;;3.53;0.80;;;22.00;60.30;;;;;;4918240;29;20541;-81
2023/12/25 00:50:55;;;;;;;2.13;1.00;;;21.90;60.60;;;;;;4935993;29;20870;-80
2023/12/25 00:53:23;;;;;;;5.33;1.03;;;21.90;60.60;;;;;;4936037;29;20467;-82
2023/12/25 00:55:51;;;;;;;1.27;1.00;;;21.90;60.50;;;;;;4937281;29;20562;-84
2023/12/25 00:58:21;;;;;;;1.83;1.20;;;22.00;60.50;;;;;;4932717;29;20455;-80
2023/12/25 01:00:49;;;;;;;1.10;0.87;;;21.90;60.50;;;;;;4935733;29;20482;-81
2023/12/25 01:03:19;;;;;;;2.10;1.10;;;21.90;60.50;;;;;;4918269;29;20458;-83
2023/12/25 01:05:47;;;;;;;2.23;0.77;;;21.90;60.50;;;;;;4935872;29;20455;-80
2023/12/25 01:08:15;;;;;;;1.30;1.10;;;21.90;60.60;;;;;;4936188;29;20456;-81
2023/12/25 01:10:44;;;;;;;1.23;0.90;;;21.90;60.50;;;;;;4936158;29;20462;-80
2023/12/25 01:13:12;;;;;;;0.93;0.90;;;21.90;60.60;;;;;;4919412;29;20468;-86
2023/12/25 01:15:40;;;;;;;0.73;0.73;;;21.90;60.70;;;;;;4919181;29;20523;-80
2023/12/25 01:18:09;;;;;;;1.93;1.50;;;21.90;60.70;;;;;;4935592;29;20481;-87
2023/12/25 01:20:40;;;;;;;1.27;1.17;;;21.90;60.40;;;;;;4931526;29;20552;-83
2023/12/25 01:23:08;;;;;;;2.10;1.00;;;21.90;60.50;;;;;;4920513;29;20537;-81
2023/12/25 01:25:36;;;;;;;1.00;1.00;;;21.90;60.30;;;;;;4921892;29;20466;-82
2023/12/25 01:28:05;;;;;;;0.87;0.87;;;21.90;60.60;;;;;;4927329;29;20484;-84
2023/12/25 01:30:33;;;;;;;2.73;0.90;;;21.90;60.50;;;;;;4923208;29;20527;-81
2023/12/25 01:33:02;;;;;;;1.53;0.93;;;21.90;60.20;;;;;;4924054;29;20489;-83
2023/12/25 01:35:30;;;;;;;0.77;0.77;;;21.80;60.20;;;;;;4919273;29;20458;-81
2023/12/25 01:38:00;;;;;;;0.83;0.80;;;21.80;60.30;;;;;;4941035;29;20471;-80
2023/12/25 01:40:28;;;;;;;1.87;1.13;;;21.80;60.10;;;;;;4919646;29;20577;-80
2023/12/25 01:42:56;;;;;;;0.70;0.50;;;21.80;60.10;;;;;;4914395;29;20554;-80
2023/12/25 01:45:25;;;;;;;1.17;1.07;;;21.80;59.90;;;;;;4936631;29;20477;-84
2023/12/25 01:47:53;;;;;;;1.07;1.00;;;21.80;59.90;;;;;;4924571;29;20460;-81
2023/12/25 01:50:22;;;;;;;1.37;0.90;;;21.80;60.00;;;;;;4917064;29;20806;-83
2023/12/25 01:52:51;;;;;;;3.90;0.97;;;21.80;60.00;;;;;;4910228;29;20906;-81
2023/12/25 01:55:20;;;;;;;1.43;0.77;;;21.80;60.00;;;;;;4942610;28;20452;-84
2023/12/25 01:57:48;;;;;;;0.70;0.70;;;21.80;60.00;;;;;;4929813;29;20460;-80
2023/12/25 02:00:17;;;;;;;1.00;0.80;;;21.80;59.90;;;;;;4921313;29;20466;-81
2023/12/25 02:02:45;;;;;;;1.30;0.73;;;21.80;59.90;;;;;;4918643;29;20488;-81
2023/12/25 02:05:14;;;;;;;0.73;0.73;;;21.80;59.60;;;;;;4949026;29;21333;-80
2023/12/25 02:07:44;;;;;;;2.20;0.70;;;21.80;59.90;;;;;;4937877;29;20811;-84
2023/12/25 02:10:27;;;;;;;1.13;0.90;;;21.80;59.70;;;;;;4943969;29;20830;-81
2023/12/25 02:12:57;;;;;;;0.73;0.73;;;21.70;59.70;;;;;;4923693;29;21024;-81
2023/12/25 02:15:26;;;;;;;1.47;0.60;;;21.70;59.70;;;;;;4922055;29;20501;-80
2023/12/25 02:17:54;;;;;;;1.33;0.80;;;21.70;59.70;;;;;;4934392;29;21142;-80
2023/12/25 02:20:23;;;;;;;0.90;0.90;;;21.70;59.80;;;;;;4938628;29;20464;-80
2023/12/25 02:22:54;;;;;;;2.20;1.00;;;21.70;59.90;;;;;;4941494;28;20541;-81
2023/12/25 02:25:32;;;;;;;0.67;0.60;;;21.70;59.80;;;;;;4935417;29;20451;-81
2023/12/25 02:28:02;;;;;;;1.97;0.63;;;21.70;60.00;;;;;;4928120;29;20810;-81
2023/12/25 02:30:30;;;;;;;3.00;2.43;;;21.70;59.90;;;;;;4937559;29;20509;-82
2023/12/25 02:33:04;;;;;;;0.90;0.80;;;21.70;59.80;;;;;;4931860;29;20576;-80
2023/12/25 02:35:33;;;;;;;0.70;0.70;;;21.70;59.80;;;;;;4923594;29;20854;-80
2023/12/25 02:38:01;;;;;;;0.87;0.80;;;21.70;59.90;;;;;;4935043;29;20817;-80
2023/12/25 02:40:30;;;;;;;0.60;0.60;;;21.70;59.90;;;;;;4918342;29;20472;-80
2023/12/25 02:42:58;;;;;;;0.70;0.70;;;21.70;59.70;;;;;;4933580;29;20483;-81
2023/12/25 02:45:29;;;;;;;0.57;0.57;;;21.70;59.80;;;;;;4934722;29;20525;-80
2023/12/25 02:47:58;;;;;;;0.60;0.50;;;21.70;59.80;;;;;;4934485;29;20509;-80
2023/12/25 02:50:26;;;;;;;0.70;0.70;;;21.70;59.60;;;;;;4938092;29;20455;-80
2023/12/25 02:52:55;;;;;;;0.70;0.70;;;21.70;59.60;;;;;;4934817;29;20524;-81
2023/12/25 02:55:23;;;;;;;1.00;0.80;;;21.70;59.70;;;;;;4934616;29;20455;-81
2023/12/25 02:57:51;;;;;;;0.73;0.73;;;21.70;59.90;;;;;;4916328;29;20467;-80
2023/12/25 03:00:20;;;;;;;1.70;0.80;;;21.70;59.90;;;;;;4934624;29;20467;-80
2023/12/25 03:02:49;;;;;;;1.40;0.77;;;21.70;59.70;;;;;;4938676;29;20482;-80
2023/12/25 03:05:18;;;;;;;0.57;0.57;;;21.70;59.70;;;;;;4934740;29;20827;-87
2023/12/25 03:07:46;;;;;;;0.50;0.47;;;21.70;59.80;;;;;;4933529;29;20459;-81
2023/12/25 03:10:14;;;;;;;0.60;0.60;;;21.60;59.70;;;;;;4938278;29;20959;-82
2023/12/25 03:12:42;;;;;;;1.37;1.00;;;21.60;59.60;;;;;;4944226;29;20453;-84
2023/12/25 03:15:11;;;;;;;1.40;0.87;;;21.60;59.60;;;;;;4934111;29;20958;-80
2023/12/25 03:17:39;;;;;;;0.83;0.60;;;21.60;59.70;;;;;;4916835;29;21060;-80
2023/12/25 03:20:10;;;;;;;0.90;0.80;;;21.60;59.80;;;;;;4942434;29;20454;-80
2023/12/25 03:22:39;;;;;;;0.70;0.50;;;21.60;59.70;;;;;;4933128;29;20511;-85
2023/12/25 03:25:08;;;;;;;0.53;0.53;;;21.60;59.60;;;;;;4928278;29;20472;-80
2023/12/25 03:27:36;;;;;;;0.43;0.43;;;21.60;59.80;;;;;;4921714;29;20463;-81
2023/12/25 03:30:07;;;;;;;0.60;0.60;;;21.60;59.50;;;;;;4917563;29;20467;-82
2023/12/25 03:32:35;;;;;;;0.90;0.60;;;21.60;59.80;;;;;;4933384;29;20537;-83
2023/12/25 03:35:04;;;;;;;0.63;0.60;;;21.60;59.50;;;;;;4934211;29;20869;-80
2023/12/25 03:37:33;;;;;;;0.87;0.80;;;21.60;59.40;;;;;;4933844;29;20501;-80
2023/12/25 03:40:02;;;;;;;0.73;0.73;;;21.60;59.60;;;;;;4921020;29;20551;-80
2023/12/25 03:42:30;;;;;;;0.60;0.60;;;21.60;59.50;;;;;;4933443;29;20866;-80
2023/12/25 03:44:58;;;;;;;0.80;0.80;;;21.60;59.80;;;;;;4934676;29;20472;-80
2023/12/25 03:47:28;;;;;;;0.40;0.40;;;21.60;59.80;;;;;;4933829;29;20458;-80
2023/12/25 03:49:57;;;;;;;0.93;0.90;;;21.60;59.80;;;;;;4943406;29;20461;-82
2023/12/25 03:52:25;;;;;;;0.57;0.57;;;21.60;59.70;;;;;;4932345;29;20871;-80
2023/12/25 03:54:55;;;;;;;0.60;0.60;;;21.60;59.80;;;;;;4933248;29;20466;-80
2023/12/25 03:57:23;;;;;;;0.63;0.63;;;21.60;59.80;;;;;;4931464;29;21045;-81
2023/12/25 03:59:51;;;;;;;0.60;0.60;;;21.60;59.80;;;;;;4946772;29;20810;-80
2023/12/25 04:02:20;;;;;;;1.17;0.60;;;21.60;59.80;;;;;;4917872;29;20541;-80
2023/12/25 04:04:48;;;;;;;1.13;0.70;;;21.60;59.70;;;;;;4925109;29;21027;-81
2023/12/25 04:07:16;;;;;;;0.60;0.60;;;21.60;59.90;;;;;;4915504;29;20507;-80
2023/12/25 04:09:45;;;;;;;1.33;0.57;;;21.60;59.60;;;;;;4938070;29;20459;-80
2023/12/25 04:12:14;;;;;;;0.80;0.50;;;21.60;59.70;;;;;;4931419;29;21200;-84
2023/12/25 04:14:43;;;;;;;0.53;0.53;;;21.60;59.70;;;;;;4933196;29;20950;-80
2023/12/25 04:17:11;;;;;;;0.93;0.50;;;21.60;59.60;;;;;;4931475;29;20477;-80
2023/12/25 04:19:41;;;;;;;0.67;0.53;;;21.60;59.60;;;;;;4937347;29;20479;-80
2023/12/25 04:22:09;;;;;;;0.50;0.50;;;21.50;59.60;;;;;;4918623;29;20501;-80
2023/12/25 04:24:37;;;;;;;0.83;0.80;;;21.50;59.50;;;;;;4921366;29;21002;-80
2023/12/25 04:27:06;;;;;;;0.60;0.50;;;21.50;59.50;;;;;;4936605;29;20459;-80
2023/12/25 04:29:35;;;;;;;0.60;0.60;;;21.50;59.60;;;;;;4930239;29;20465;-80
2023/12/25 04:32:04;;;;;;;1.80;0.60;;;21.50;59.70;;;;;;4931262;29;20469;-81
2023/12/25 04:34:32;;;;;;;2.80;0.67;;;21.50;59.70;;;;;;4926652;29;20465;-80
2023/12/25 04:37:00;;;;;;;0.50;0.50;;;21.50;59.60;;;;;;4925456;29;20474;-80
2023/12/25 04:39:29;;;;;;;0.40;0.30;;;21.50;59.60;;;;;;4933650;29;20533;-80
2023/12/25 04:41:57;;;;;;;1.00;0.70;;;21.50;59.70;;;;;;4918443;29;20466;-83
2023/12/25 04:44:25;;;;;;;0.50;0.50;;;21.50;59.40;;;;;;4919517;29;20490;-80
2023/12/25 04:46:55;;;;;;;0.40;0.40;;;21.50;59.60;;;;;;4929485;29;20464;-83
2023/12/25 04:49:24;;;;;;;0.63;0.63;;;21.50;59.60;;;;;;4930996;29;20519;-80
2023/12/25 04:51:52;;;;;;;0.50;0.50;;;21.50;59.60;;;;;;4940984;29;20558;-83
2023/12/25 04:54:20;;;;;;;0.60;0.60;;;21.50;59.30;;;;;;4923448;29;20772;-80
2023/12/25 04:56:51;;;;;;;0.53;0.53;;;21.50;59.60;;;;;;4918700;29;20839;-80
2023/12/25 04:59:21;;;;;;;0.70;0.60;;;21.50;59.50;;;;;;4941092;29;20458;-80
2023/12/25 05:01:50;;;;;;;0.67;0.60;;;21.50;59.60;;;;;;4931540;29;20557;-80
2023/12/25 05:04:19;;;;;;;0.50;0.43;;;21.50;59.40;;;;;;4919906;29;20482;-83
2023/12/25 05:06:47;;;;;;;1.70;0.60;;;21.50;59.40;;;;;;4936040;29;20462;-81
2023/12/25 05:09:16;;;;;;;0.60;0.60;;;21.50;59.20;;;;;;4924387;29;20469;-81
2023/12/25 05:11:44;;;;;;;0.40;0.40;;;21.50;59.40;;;;;;4934283;29;20463;-81
2023/12/25 05:14:14;;;;;;;0.90;0.60;;;21.60;59.30;;;;;;4934409;29;20470;-81
2023/12/25 05:16:42;;;;;;;0.90;0.60;;;21.60;59.40;;;;;;4927364;29;20460;-80
2023/12/25 05:19:12;;;;;;;0.70;0.60;;;21.60;59.40;;;;;;4933747;29;20456;-81
2023/12/25 05:21:43;;;;;;;0.80;0.63;;;21.60;58.90;;;;;;4929329;29;20484;-82
2023/12/25 05:24:11;;;;;;;0.40;0.40;;;21.70;59.10;;;;;;4938924;29;20486;-79
2023/12/25 05:26:40;;;;;;;0.60;0.60;;;21.70;58.80;;;;;;4922393;29;20467;-83
2023/12/25 05:29:08;;;;;;;0.50;0.50;;;21.80;59.00;;;;;;4939436;29;20537;-80
2023/12/25 05:31:36;;;;;;;0.50;0.50;;;21.80;58.80;;;;;;4931401;29;20462;-81
2023/12/25 05:34:04;;;;;;;0.60;0.60;;;21.80;58.80;;;;;;4931772;29;20479;-84
2023/12/25 05:36:33;;;;;;;0.80;0.70;;;21.90;58.70;;;;;;4927267;29;20558;-81
2023/12/25 05:39:03;;;;;;;0.43;0.43;;;21.90;58.70;;;;;;4931605;29;20471;-81
2023/12/25 05:41:42;;;;;;;0.50;0.50;;;21.90;58.90;;;;;;4932693;29;20482;-81
2023/12/25 05:44:10;;;;;;;0.63;0.63;;;22.00;58.70;;;;;;4936357;29;20485;-81
2023/12/25 05:46:39;;;;;;;0.50;0.50;;;22.00;58.60;;;;;;4942579;29;20494;-81
2023/12/25 05:49:07;;;;;;;0.53;0.50;;;22.00;58.90;;;;;;4921305;29;20447;-84
2023/12/25 05:51:36;;;;;;;0.50;0.50;;;22.10;58.90;;;;;;4938283;29;20464;-80
2023/12/25 05:54:06;;;;;;;0.50;0.40;;;22.10;58.90;;;;;;4940749;29;21339;-83
2023/12/25 05:56:34;;;;;;;0.93;0.70;;;22.10;58.30;;;;;;4933584;29;20467;-84
2023/12/25 05:59:02;;;;;;;0.60;0.60;;;22.20;58.40;;;;;;4924522;29;20446;-80
2023/12/25 06:01:30;;;;;;;0.80;0.70;;;22.20;58.80;;;;;;4923861;29;20476;-82
2023/12/25 06:04:00;;;;;;;0.30;0.30;;;22.20;58.80;;;;;;4935191;29;20476;-83
2023/12/25 06:06:29;;;;;;;0.50;0.40;;;22.30;58.40;;;;;;4922724;29;20850;-80
2023/12/25 06:08:57;;;;;;;0.60;0.60;;;22.30;58.70;;;;;;4939074;29;20467;-80
2023/12/25 06:11:26;;;;;;;0.67;0.40;;;22.30;58.70;;;;;;4940249;29;20481;-81
2023/12/25 06:13:55;;;;;;;0.50;0.50;;;22.30;58.60;;;;;;4944898;29;20451;-81
2023/12/25 06:16:23;;;;;;;0.97;0.50;;;22.30;58.60;;;;;;4931365;29;20484;-81
2023/12/25 06:18:51;;;;;;;0.70;0.60;;;22.30;58.40;;;;;;4933964;29;20466;-82
2023/12/25 06:21:20;;;;;;;1.07;0.50;;;22.30;58.50;;;;;;4935614;29;21010;-80
2023/12/25 06:23:48;;;;;;;0.50;0.50;;;22.30;58.40;;;;;;4928070;29;20545;-80
2023/12/25 06:26:16;;;;;;;0.70;0.60;;;22.30;58.40;;;;;;4939785;29;20550;-84
2023/12/25 06:28:46;;;;;;;1.07;0.50;;;22.20;58.20;;;;;;4931859;29;20491;-86
2023/12/25 06:31:14;;;;;;;0.60;0.57;;;22.20;58.30;;;;;;4933299;29;20976;-84
2023/12/25 06:33:42;;;;;;;0.50;0.50;;;22.20;58.60;;;;;;4934574;29;20857;-80
2023/12/25 06:36:10;;;;;;;0.77;0.60;;;22.20;58.40;;;;;;4934071;29;20524;-83
2023/12/25 06:38:39;;;;;;;0.60;0.60;;;22.10;58.60;;;;;;4935920;29;20463;-80
2023/12/25 06:41:07;;;;;;;0.40;0.40;;;22.10;58.60;;;;;;4937445;29;20472;-82
2023/12/25 06:43:35;;;;;;;0.40;0.37;;;22.10;58.70;;;;;;4933192;29;20448;-83
2023/12/25 06:46:05;;;;;;;0.77;0.50;;;22.10;58.70;;;;;;4935179;29;20526;-81
2023/12/25 06:48:33;;;;;;;0.50;0.40;;;22.10;58.70;;;;;;4934147;29;20860;-81
2023/12/25 06:51:01;;;;;;;0.50;0.50;;;22.10;58.70;;;;;;4945956;29;20948;-82
2023/12/25 06:53:30;;;;;;;0.50;0.40;;;22.10;58.70;;;;;;4935392;29;20465;-80
2023/12/25 06:55:58;;;;;;;0.60;0.40;;;22.00;58.50;;;;;;4934180;29;20522;-83
2023/12/25 06:58:26;;;;;;;0.57;0.57;;;22.00;58.70;;;;;;4928261;29;20513;-81
2023/12/25 07:00:54;;;;;;;0.83;0.50;;;22.00;58.60;;;;;;4946238;29;20467;-87
2023/12/25 07:03:24;;;;;;;0.40;0.40;;;22.10;57.70;;;;;;4934771;29;20476;-81
2023/12/25 07:05:52;;;;;;;0.43;0.43;;;22.00;57.60;;;;;;4936524;29;20479;-82
2023/12/25 07:08:20;;;;;;;0.47;0.47;;;22.00;57.70;;;;;;4934436;29;20455;-80
2023/12/25 07:10:49;;;;;;;0.40;0.40;;;22.00;57.60;;;;;;4943940;29;20455;-81
2023/12/25 07:13:17;;;;;;;0.57;0.50;;;22.00;57.50;;;;;;4933054;29;20495;-84
2023/12/25 07:15:45;;;;;;;0.40;0.40;;;22.10;57.60;;;;;;4934825;29;20452;-81
2023/12/25 07:18:13;;;;;;;0.60;0.50;;;22.10;58.30;;;;;;4918462;29;20467;-82
2023/12/25 07:20:43;;;;;;;0.70;0.50;;;22.10;57.80;;;;;;4932112;29;20460;-83
2023/12/25 07:23:13;;;;;;;0.90;0.57;;;22.10;57.30;;;;;;4949497;28;20493;-81
2023/12/25 07:25:41;;;;;;;0.60;0.60;;;22.10;57.20;;;;;;4932079;29;20480;-83
2023/12/25 07:28:09;;;;;;;0.40;0.40;;;22.10;57.70;;;;;;4939639;29;20454;-87
2023/12/25 07:30:38;;;;;;;0.50;0.50;;;22.10;57.50;;;;;;4947321;29;20462;-83
2023/12/25 07:33:06;;;;;;;0.63;0.50;;;22.10;57.70;;;;;;4898162;29;20460;-82
2023/12/25 07:35:34;;;;;;;0.60;0.43;;;22.20;57.60;;;;;;4934065;29;20979;-86
2023/12/25 07:38:04;;;;;;;0.50;0.50;;;22.20;57.40;;;;;;4942320;29;20454;-84
2023/12/25 07:40:33;;;;;;;0.60;0.60;;;22.20;57.10;;;;;;4942247;29;20934;-81
2023/12/25 07:43:02;;;;;;;2.20;0.60;;;22.20;57.60;;;;;;4930243;29;20461;-81
2023/12/25 07:45:30;;;;;;;0.97;0.60;;;22.20;57.70;;;;;;4948071;29;20879;-81
2023/12/25 07:47:58;;;;;;;0.50;0.50;;;22.20;57.60;;;;;;4933391;29;20490;-82
2023/12/25 07:50:27;;;;;;;0.47;0.47;;;22.20;57.50;;;;;;4945843;29;20470;-82
2023/12/25 07:52:55;;;;;;;0.80;0.70;;;22.20;57.50;;;;;;4939379;28;20456;-83
2023/12/25 07:55:25;;;;;;;0.60;0.60;;;22.20;57.30;;;;;;4933847;29;20466;-88
2023/12/25 07:57:53;;;;;;;0.63;0.63;;;22.20;57.40;;;;;;4933963;29;20462;-81
2023/12/25 08:00:22;;;;;;;0.40;0.40;;;22.20;57.40;;;;;;4932062;29;22295;-82
2023/12/25 08:02:50;;;;;;;0.57;0.57;;;22.20;57.20;;;;;;4929014;29;20472;-83
2023/12/25 08:05:18;;;;;;;0.70;0.63;;;22.10;57.40;;;;;;4924199;29;20504;-83
2023/12/25 08:07:47;;;;;;;0.50;0.50;;;22.10;57.50;;;;;;4932288;29;20534;-82
2023/12/25 08:10:15;;;;;;;1.03;0.67;;;22.10;57.30;;;;;;4935345;29;20468;-85
2023/12/25 08:12:45;;;;;;;0.50;0.43;;;22.10;57.50;;;;;;4933778;29;20797;-84
2023/12/25 08:15:15;;;;;;;0.60;0.37;;;22.10;57.00;;;;;;4927188;29;20988;-82
2023/12/25 08:17:44;;;;;;;0.80;0.60;;;22.00;56.90;;;;;;4929616;29;20461;-85
2023/12/25 08:20:12;;;;;;;2.10;0.60;;;22.00;57.50;;;;;;4929451;29;20878;-83
2023/12/25 08:22:41;;;;;;;0.80;0.77;;;22.00;57.60;;;;;;4929826;29;21035;-81
2023/12/25 08:25:10;;;;;;;0.63;0.63;;;22.00;57.80;;;;;;4934493;29;20478;-85
2023/12/25 08:27:38;;;;;;;0.70;0.70;;;22.00;57.90;;;;;;4944480;29;20789;-81
2023/12/25 08:30:09;;;;;;;1.17;1.07;;;22.10;58.00;;;;;;4940795;29;20455;-81
2023/12/25 08:32:37;;;;;;;2.97;1.10;;;22.10;57.60;;;;;;4938169;29;20531;-81
2023/12/25 08:35:06;;;;;;;0.80;0.80;;;22.10;57.90;;;;;;4940281;29;20475;-83
2023/12/25 08:37:34;;;;;;;0.80;0.80;;;22.10;58.00;;;;;;4942866;29;20467;-82
2023/12/25 08:40:03;;;;;;;0.80;0.80;;;22.10;58.00;;;;;;4937721;29;21032;-84
2023/12/25 08:42:31;;;;;;;1.13;0.80;;;22.20;57.90;;;;;;4923772;29;20459;-84
2023/12/25 08:45:00;;;;;;;1.13;1.03;;;22.20;57.60;;;;;;4920671;29;20456;-82
2023/12/25 08:47:30;;;;;;;1.37;0.90;;;22.20;57.90;;;;;;4914475;29;20484;-82
2023/12/25 08:49:58;;;;;;;0.70;0.70;;;22.20;57.20;;;;;;4926703;29;20472;-81
2023/12/25 08:52:26;;;;;;;1.57;1.00;;;22.30;57.20;;;;;;4927661;29;20460;-81
2023/12/25 08:54:54;;;;;;;0.83;0.83;;;22.30;57.10;;;;;;4927951;29;20464;-82
2023/12/25 08:57:23;;;;;;;0.87;0.80;;;22.40;57.00;;;;;;4919854;29;20500;-82
2023/12/25 08:59:51;;;;;;;2.40;1.00;;;22.40;57.00;;;;;;4929059;29;20463;-83
2023/12/25 09:02:19;;;;;;;1.07;0.70;;;22.40;56.90;;;;;;4943716;29;20856;-84
2023/12/25 09:04:49;;;;;;;0.63;0.63;;;22.50;57.40;;;;;;4927631;29;20463;-83
2023/12/25 09:07:18;;;;;;;1.07;0.97;;;22.50;57.40;;;;;;4937993;29;20479;-83
2023/12/25 09:09:46;;;;;;;1.47;0.80;;;22.50;57.40;;;;;;4935554;29;20456;-83
2023/12/25 09:12:14;;;;;;;1.57;0.70;;;22.50;57.10;;;;;;4930179;29;20471;-85
2023/12/25 09:14:43;;;;;;;2.30;0.90;;;22.50;57.50;;;;;;4929909;29;20978;-82
2023/12/25 09:17:11;;;;;;;0.70;0.70;;;22.50;57.30;;;;;;4936708;29;20538;-82
2023/12/25 09:19:39;;;;;;;0.83;0.60;;;22.40;57.50;;;;;;4940824;29;20465;-85
2023/12/25 09:22:09;;;;;;;0.93;0.87;;;22.40;57.70;;;;;;4930240;29;20492;-83
2023/12/25 09:24:41;;;;;;;0.70;0.70;;;22.40;57.40;;;;;;4934534;29;20491;-84
2023/12/25 09:27:10;;;;;;;1.10;0.80;;;22.40;57.80;;;;;;4927470;29;20931;-85
2023/12/25 09:29:38;;;;;;;0.70;0.70;;;22.40;57.80;;;;;;4928552;29;20452;-84
2023/12/25 09:32:06;;;;;;;1.10;0.90;;;22.40;57.60;;;;;;4919785;29;20563;-85
2023/12/25 09:34:35;;;;;;;0.80;0.80;;;22.40;57.70;;;;;;4934062;29;20464;-90
2023/12/25 09:37:23;;;;;;;1.40;1.20;;;22.40;57.60;;;;;;4932729;29;20600;-83
2023/12/25 09:39:51;;;;;;;0.90;0.80;;;22.30;57.80;;;;;;4939290;29;20489;-84
2023/12/25 09:42:19;;;;;;;0.60;0.60;;;22.30;58.00;;;;;;4929839;29;20888;-84
2023/12/25 09:44:51;;;;;;;0.50;0.50;;;22.30;57.90;;;;;;4925917;29;20478;-84
2023/12/25 09:47:19;;;;;;;2.00;0.97;;;22.30;58.00;;;;;;4934643;29;20543;-83
2023/12/25 09:49:48;;;;;;;0.80;0.80;;;22.30;58.00;;;;;;4933821;29;21978;-82
2023/12/25 09:52:17;;;;;;;0.77;0.77;;;22.40;58.00;;;;;;4932371;29;20559;-83
2023/12/25 09:54:47;;;;;;;0.90;0.90;;;22.40;58.00;;;;;;4934984;29;20989;-84
2023/12/25 09:57:17;;;;;;;2.10;0.53;;;22.40;57.80;;;;;;4931541;29;20475;-83
2023/12/25 09:59:49;;;;;;;1.00;0.70;;;22.40;57.60;;;;;;4935445;29;20464;-82
2023/12/25 10:02:21;;;;;;;1.20;1.00;;;22.50;57.70;;;;;;4930441;29;20558;-83
2023/12/25 10:04:50;;;;;;;1.80;0.90;;;22.60;57.80;;;;;;4919136;29;20528;-82
2023/12/25 10:07:20;;;;;;;1.30;0.77;;;22.70;57.50;;;;;;4935951;29;20480;-81
2023/12/25 10:09:53;;;;;;;1.10;1.00;;;22.80;57.60;;;;;;4933165;29;20467;-82
2023/12/25 10:12:21;;;;;;;0.70;0.70;;;22.80;57.40;;;;;;4927100;29;20448;-85
2023/12/25 10:14:49;;;;;;;1.70;0.90;;;22.90;57.40;;;;;;4935320;29;20508;-85
2023/12/25 10:17:18;;;;;;;1.20;1.10;;;22.90;57.50;;;;;;4931675;28;20461;-83
2023/12/25 10:19:51;;;;;;;2.30;1.43;;;22.90;57.60;;;;;;4931952;29;20513;-83
2023/12/25 10:22:30;;;;;;;3.93;1.90;;;22.90;57.40;;;;;;4921948;29;20484;-83
2023/12/25 10:25:09;;;;;;;4.40;1.93;;;23.00;57.60;;;;;;4935104;29;20462;-82
2023/12/25 10:27:39;;;;;;;2.33;1.33;;;23.00;57.70;;;;;;4935697;29;20568;-83
2023/12/25 10:30:16;;;;;;;4.10;2.40;;;23.00;57.90;;;;;;4936763;29;20569;-83
2023/12/25 10:32:45;;;;;;;2.53;2.00;;;23.00;57.90;;;;;;4928481;29;20948;-83
2023/12/25 10:35:15;;;;;;;2.70;1.87;;;23.00;57.90;;;;;;4932410;29;20559;-86
2023/12/25 10:37:45;;;;;;;3.30;1.70;;;23.10;57.80;;;;;;4933464;29;20470;-85
2023/12/25 10:40:23;;;;;;;2.70;1.70;;;23.10;57.80;;;;;;4923703;29;20446;-84
2023/12/25 10:42:53;;;;;;;2.83;1.37;;;23.20;57.80;;;;;;4927315;29;20456;-81
2023/12/25 10:45:23;;;;;;;2.77;1.70;;;23.30;57.50;;;;;;4929280;29;21036;-81
2023/12/25 10:47:53;;;;;;;3.43;1.90;;;23.30;57.30;;;;;;4931736;29;20487;-82
2023/12/25 10:50:25;;;;;;;4.47;1.37;;;23.40;57.30;;;;;;4932123;29;20521;-82
2023/12/25 10:52:54;;;;;;;6.23;2.07;;;23.40;57.10;;;;;;4936061;29;20551;-86
2023/12/25 10:55:31;;;;;;;1.73;1.57;;;23.50;56.80;;;;;;4928663;29;20516;-85
2023/12/25 10:58:04;;;;;;;4.13;2.00;;;23.60;56.80;;;;;;4929938;29;20471;-83
2023/12/25 11:00:35;;;;;;;5.10;2.20;;;23.70;56.40;;;;;;4930106;29;20461;-82
2023/12/25 11:03:05;;;;;;;2.63;1.73;;;23.70;56.10;;;;;;4938099;29;20466;-83
2023/12/25 11:05:33;;;;;;;1.97;1.40;;;23.80;55.80;;;;;;4914673;29;20488;-82
2023/12/25 11:08:02;;;;;;;4.17;1.67;;;23.70;55.50;;;;;;4913553;29;20496;-80
2023/12/25 11:10:32;;;;;;;4.20;1.53;;;23.60;55.90;;;;;;4932996;29;20473;-82
2023/12/25 11:13:02;;;;;;;3.30;1.70;;;23.50;56.00;;;;;;4928687;29;20457;-84
2023/12/25 11:15:30;;;;;;;5.20;1.73;;;23.30;55.80;;;;;;4933981;29;20462;-86
2023/12/25 11:17:59;;;;;;;2.40;1.50;;;23.30;56.30;;;;;;4930035;29;20521;-84
2023/12/25 11:20:31;;;;;;;3.43;1.87;;;23.20;56.00;;;;;;4924990;29;20453;-83
2023/12/25 11:22:59;;;;;;;4.20;1.70;;;23.10;56.20;;;;;;4931572;29;21046;-83
2023/12/25 11:25:31;;;;;;;2.80;1.70;;;23.10;56.30;;;;;;4937576;29;20456;-83
2023/12/25 11:28:04;;;;;;;3.23;1.93;;;23.00;56.50;;;;;;4933200;29;20485;-83
2023/12/25 11:30:35;;;;;;;4.00;1.77;;;23.00;56.60;;;;;;4932181;29;20573;-83
2023/12/25 11:33:03;;;;;;;1.40;1.17;;;23.10;56.40;;;;;;4928852;29;20939;-82
2023/12/25 11:35:33;;;;;;;1.40;1.30;;;23.20;56.20;;;;;;4931998;29;20461;-82
2023/12/25 11:38:29;;;;;;;2.03;1.30;;;23.30;56.20;;;;;;4939660;29;20447;-81
2023/12/25 11:41:03;;;;;;;2.57;1.70;;;23.40;55.80;;;;;;4896315;29;20969;-90
2023/12/25 11:43:33;;;;;;;2.77;1.50;;;23.40;55.80;;;;;;4936806;29;20453;-84
2023/12/25 11:46:05;;;;;;;3.87;1.30;;;23.40;55.60;;;;;;4933394;29;20452;-87
2023/12/25 11:48:33;;;;;;;2.50;1.30;;;23.40;55.70;;;;;;4923758;29;20475;-83
2023/12/25 11:51:19;;;;;;;5.27;1.40;;;23.40;55.50;;;;;;4942416;29;20459;-85
2023/12/25 11:53:48;;;;;;;2.50;1.27;;;23.30;55.50;;;;;;4933605;29;20930;-82
2023/12/25 11:56:17;;;;;;;2.33;1.30;;;23.30;55.70;;;;;;4931956;29;21228;-83
2023/12/25 11:58:47;;;;;;;1.50;1.23;;;23.20;55.70;;;;;;4932562;29;20452;-83
2023/12/25 12:01:17;;;;;;;1.60;1.23;;;23.20;55.70;;;;;;4933188;29;20869;-82
2023/12/25 12:03:47;;;;;;;1.40;1.30;;;23.20;56.00;;;;;;4928610;29;20468;-82
2023/12/25 12:06:16;;;;;;;1.90;1.43;;;23.20;56.00;;;;;;4935444;29;20547;-82
2023/12/25 12:08:47;;;;;;;1.63;1.27;;;23.20;55.90;;;;;;4936062;29;20932;-82
2023/12/25 12:11:16;;;;;;;1.40;0.93;;;23.20;56.10;;;;;;4925074;29;21017;-82
2023/12/25 12:13:45;;;;;;;1.40;1.10;;;23.30;56.20;;;;;;4930850;29;20497;-82
2023/12/25 12:16:14;;;;;;;1.20;1.07;;;23.50;56.20;;;;;;4925181;29;20506;-85
2023/12/25 12:18:42;;;;;;;3.30;1.33;;;23.60;56.10;;;;;;4927001;29;20545;-82
2023/12/25 12:21:11;;;;;;;3.43;1.67;;;23.60;55.80;;;;;;4925491;29;20466;-85
2023/12/25 12:23:39;;;;;;;1.67;1.23;;;23.50;55.40;;;;;;4920010;29;20477;-83
2023/12/25 12:26:15;;;;;;;2.10;1.53;;;23.50;55.90;;;;;;4933532;29;20519;-82
2023/12/25 12:28:43;;;;;;;2.10;1.77;;;23.40;55.90;;;;;;4932121;29;20487;-83
2023/12/25 12:31:12;;;;;;;2.00;1.27;;;23.30;56.00;;;;;;4942320;29;20963;-83
2023/12/25 12:33:43;;;;;;;1.50;1.40;;;23.20;56.40;;;;;;4930423;29;20953;-83
2023/12/25 12:36:12;;;;;;;1.63;0.93;;;23.20;56.20;;;;;;4924381;29;20806;-83
2023/12/25 12:38:42;;;;;;;2.10;1.23;;;23.10;56.40;;;;;;4930467;29;21545;-81
2023/12/25 12:41:12;;;;;;;1.43;1.20;;;23.10;56.60;;;;;;4928672;29;20456;-81
2023/12/25 12:43:41;;;;;;;1.20;1.00;;;23.10;56.50;;;;;;4931562;29;20456;-83
2023/12/25 12:46:14;;;;;;;2.30;1.27;;;23.10;56.50;;;;;;4926774;29;20476;-81
2023/12/25 12:48:44;;;;;;;1.63;1.30;;;23.10;56.50;;;;;;4928549;29;20482;-83
2023/12/25 12:51:13;;;;;;;1.73;0.93;;;23.10;56.30;;;;;;4935035;29;20474;-85
2023/12/25 12:53:41;;;;;;;1.27;0.90;;;23.10;56.60;;;;;;4936017;29;20492;-85
2023/12/25 12:56:12;;;;;;;1.37;1.00;;;23.10;56.50;;;;;;4933116;29;20932;-82
2023/12/25 12:58:40;;;;;;;0.90;0.90;;;23.00;56.50;;;;;;4922672;29;20491;-82